Time;durP1;ratioP1;P1;durP2;ratioP2;P2;SDS_P1;SDS_P2;PMS_P1;PMS_P2;Temp;Humidity;BMP_temperature;BMP_pressure;BME280_temperature;BME280_humidity;BME280_pressure;Samples;Min_cycle;Max_cycle;Signal;HPM_P1;HPM_P2
2021/01/26 00:01:07;;;;;;;18.07;13.70;;;2.10;99.90;;;;;;4969225;28;20563;-25
2021/01/26 00:03:35;;;;;;;15.10;12.20;;;2.20;99.90;;;;;;4971094;28;20503;-25
2021/01/26 00:06:06;;;;;;;16.40;12.57;;;2.30;99.90;;;;;;4971899;28;20608;-26
2021/01/26 00:08:34;;;;;;;19.47;14.20;;;2.30;99.90;;;;;;4973726;28;20527;-26
2021/01/26 00:11:03;;;;;;;17.83;14.30;;;2.30;99.90;;;;;;4973958;28;20449;-26
2021/01/26 00:13:32;;;;;;;24.17;14.70;;;2.30;99.90;;;;;;4972819;28;20438;-25
2021/01/26 00:16:03;;;;;;;19.27;13.93;;;2.30;99.90;;;;;;4973901;28;20611;-25
2021/01/26 00:18:31;;;;;;;21.37;15.13;;;2.20;99.90;;;;;;4970983;28;20500;-26
2021/01/26 00:20:59;;;;;;;17.93;14.50;;;2.10;99.90;;;;;;4972536;28;21126;-26
2021/01/26 00:23:29;;;;;;;21.17;14.87;;;2.10;99.90;;;;;;4974209;28;20516;-26
2021/01/26 00:25:57;;;;;;;20.60;15.30;;;2.10;99.90;;;;;;4975571;28;21089;-25
2021/01/26 00:28:28;;;;;;;20.17;15.07;;;2.10;99.90;;;;;;4974654;28;20441;-25
2021/01/26 00:30:56;;;;;;;22.93;15.37;;;2.10;99.90;;;;;;4975140;28;20491;-26
2021/01/26 00:33:24;;;;;;;21.37;15.40;;;2.10;99.90;;;;;;4974625;28;20457;-25
2021/01/26 00:35:52;;;;;;;17.70;12.33;;;2.10;99.90;;;;;;4975019;28;20440;-25
2021/01/26 00:38:20;;;;;;;18.83;14.30;;;2.00;99.90;;;;;;4974954;28;21154;-25
2021/01/26 00:40:47;;;;;;;18.00;13.47;;;1.80;99.90;;;;;;4974234;28;20489;-25
2021/01/26 00:43:18;;;;;;;24.10;15.83;;;1.80;99.90;;;;;;4972069;28;20926;-25
2021/01/26 00:45:45;;;;;;;23.27;15.03;;;1.70;99.90;;;;;;4973922;28;21073;-26
2021/01/26 00:48:15;;;;;;;20.83;14.20;;;1.70;99.90;;;;;;4974272;28;20461;-26
2021/01/26 00:50:43;;;;;;;19.37;14.53;;;1.70;99.90;;;;;;4973772;28;20449;-26
2021/01/26 00:53:10;;;;;;;23.07;15.87;;;1.70;99.90;;;;;;4974279;28;20971;-26
2021/01/26 00:55:52;;;;;;;21.20;14.97;;;1.80;99.90;;;;;;4974991;28;20459;-26
2021/01/26 00:58:23;;;;;;;21.50;14.97;;;1.80;99.90;;;;;;4974417;28;20492;-26
2021/01/26 01:00:51;;;;;;;22.77;15.57;;;1.80;99.90;;;;;;4974660;28;20456;-26
2021/01/26 01:03:22;;;;;;;22.13;15.97;;;1.90;99.90;;;;;;4975063;28;20551;-26
2021/01/26 01:05:49;;;;;;;22.17;15.53;;;1.90;99.90;;;;;;4975055;28;20531;-26
2021/01/26 01:08:18;;;;;;;24.23;16.70;;;1.90;99.90;;;;;;4973281;28;20647;-26
2021/01/26 01:10:45;;;;;;;25.10;16.67;;;1.90;99.90;;;;;;4973559;28;20468;-26
2021/01/26 01:13:16;;;;;;;24.43;16.33;;;1.80;99.90;;;;;;4975682;28;20477;-26
2021/01/26 01:15:46;;;;;;;23.97;15.60;;;1.80;99.90;;;;;;4958638;28;20544;-26
2021/01/26 01:18:19;;;;;;;24.17;15.10;;;1.80;99.90;;;;;;4974743;28;20532;-26
2021/01/26 01:20:46;;;;;;;20.03;15.20;;;1.80;99.90;;;;;;4973313;28;20437;-26
2021/01/26 01:23:13;;;;;;;22.50;15.83;;;1.70;99.90;;;;;;4974491;28;20564;-26
2021/01/26 01:25:45;;;;;;;21.43;16.63;;;1.70;99.90;;;;;;4974267;28;20452;-26
2021/01/26 01:28:17;;;;;;;28.40;19.13;;;1.70;99.90;;;;;;4973348;28;20452;-26
2021/01/26 01:30:45;;;;;;;25.23;17.53;;;1.80;99.90;;;;;;4956410;28;20495;-26
2021/01/26 01:33:12;;;;;;;28.47;19.07;;;1.90;99.90;;;;;;4970332;28;20513;-26
2021/01/26 01:35:39;;;;;;;26.88;19.70;;;1.90;99.90;;;;;;4973227;28;20441;-26
2021/01/26 01:38:06;;;;;;;27.30;18.70;;;1.90;99.90;;;;;;4972997;28;20223;-26
2021/01/26 01:40:35;;;;;;;24.40;16.77;;;1.90;99.90;;;;;;4972798;28;20445;-26
2021/01/26 01:43:05;;;;;;;23.53;16.70;;;2.00;99.90;;;;;;4973794;28;20832;-26
2021/01/26 01:45:33;;;;;;;21.23;16.03;;;2.00;99.90;;;;;;4957561;28;21064;-26
2021/01/26 01:48:04;;;;;;;22.10;16.93;;;2.00;99.90;;;;;;4973937;28;20433;-26
2021/01/26 01:50:37;;;;;;;25.80;17.23;;;2.10;99.90;;;;;;4973243;28;20859;-26
2021/01/26 01:53:12;;;;;;;25.70;17.27;;;2.10;99.90;;;;;;4973692;28;20577;-26
2021/01/26 01:55:44;;;;;;;22.17;16.93;;;2.00;99.90;;;;;;4974391;28;20460;-26
2021/01/26 01:58:19;;;;;;;23.33;16.97;;;2.00;99.90;;;;;;4972787;28;20536;-26
2021/01/26 02:00:52;;;;;;;25.63;16.37;;;2.00;99.90;;;;;;4974016;28;20441;-26
2021/01/26 02:03:28;;;;;;;23.00;15.67;;;1.90;99.90;;;;;;4973484;28;20457;-26
2021/01/26 02:05:58;;;;;;;24.87;17.77;;;1.90;99.90;;;;;;4973632;28;20441;-26
2021/01/26 02:08:36;;;;;;;24.53;17.43;;;1.80;99.90;;;;;;4973271;28;20608;-26
2021/01/26 02:11:04;;;;;;;26.80;17.77;;;1.80;99.90;;;;;;4973915;28;20452;-26
2021/01/26 02:13:32;;;;;;;25.20;18.20;;;1.90;99.90;;;;;;4975446;28;20492;-26
2021/01/26 02:16:04;;;;;;;25.03;18.73;;;1.90;99.90;;;;;;4972999;28;20441;-26
2021/01/26 02:18:54;;;;;;;23.00;17.03;;;1.90;99.90;;;;;;4973734;28;20464;-26
2021/01/26 02:22:12;;;;;;;25.47;16.63;;;1.90;99.90;;;;;;4971991;28;20516;-26
2021/01/26 02:25:15;;;;;;;22.03;16.20;;;1.90;99.90;;;;;;4958431;28;21085;-26
2021/01/26 02:28:17;;;;;;;21.37;15.63;;;2.00;99.90;;;;;;4972976;28;20763;-26
2021/01/26 02:31:06;;;;;;;20.77;14.90;;;2.10;99.90;;;;;;4974187;28;20433;-26
2021/01/26 02:34:09;;;;;;;21.60;15.67;;;2.10;99.90;;;;;;4972574;28;20442;-26
2021/01/26 02:37:13;;;;;;;20.97;14.97;;;2.20;99.90;;;;;;4972929;28;20700;-26
2021/01/26 02:40:07;;;;;;;22.93;14.80;;;2.20;99.90;;;;;;4937741;29;20584;-26
2021/01/26 02:43:01;;;;;;;33.27;16.17;;;2.10;99.90;;;;;;4953786;29;20863;-26
2021/01/26 02:45:33;;;;;;;24.67;15.00;;;2.00;99.90;;;;;;4958102;28;20725;-26
2021/01/26 02:48:36;;;;;;;19.60;15.00;;;2.10;99.90;;;;;;4969537;28;20449;-25
2021/01/26 02:51:16;;;;;;;23.23;16.80;;;2.00;99.90;;;;;;5128789;27;20504;-28
2021/01/26 02:53:53;;;;;;;23.30;15.70;;;2.00;99.90;;;;;;5108443;28;20443;-28
2021/01/26 02:56:32;;;;;;;19.50;15.93;;;2.00;99.90;;;;;;5098256;28;20447;-28
2021/01/26 02:59:04;;;;;;;19.50;15.10;;;2.00;99.90;;;;;;5087146;28;20431;-27
2021/01/26 03:01:41;;;;;;;21.87;15.23;;;2.00;99.90;;;;;;5089932;28;21238;-28
2021/01/26 03:04:14;;;;;;;21.10;14.83;;;1.90;99.90;;;;;;5087741;28;20447;-28
2021/01/26 03:06:47;;;;;;;20.77;15.00;;;1.90;99.90;;;;;;5088618;28;20479;-28
2021/01/26 03:09:19;;;;;;;21.40;15.97;;;1.90;99.90;;;;;;5099941;28;20742;-28
2021/01/26 03:11:53;;;;;;;21.10;14.67;;;1.90;99.90;;;;;;5103850;28;20477;-27
2021/01/26 03:14:29;;;;;;;20.42;14.88;;;1.90;99.90;;;;;;5097259;28;20580;-28
2021/01/26 03:17:05;;;;;;;22.13;14.60;;;1.80;99.90;;;;;;5128785;28;20213;-26
2021/01/26 03:19:35;;;;;;;17.27;14.10;;;1.70;99.90;;;;;;5110118;28;20470;-28
2021/01/26 03:22:06;;;;;;;24.17;16.10;;;1.70;99.90;;;;;;5128328;28;20443;-27
2021/01/26 03:24:42;;;;;;;19.57;14.50;;;1.70;99.90;;;;;;5127159;28;20505;-28
2021/01/26 03:27:16;;;;;;;21.97;15.27;;;1.70;99.90;;;;;;5127709;28;20469;-28
2021/01/26 03:29:47;;;;;;;20.57;15.67;;;1.70;99.90;;;;;;5128414;28;20474;-27
2021/01/26 03:32:18;;;;;;;20.53;13.93;;;1.70;99.90;;;;;;5127596;28;21017;-28
2021/01/26 03:34:46;;;;;;;20.53;14.20;;;1.70;99.90;;;;;;5110947;28;20453;-27
2021/01/26 03:37:14;;;;;;;18.50;14.40;;;1.70;99.90;;;;;;5108376;28;20892;-27
2021/01/26 03:39:42;;;;;;;23.27;15.17;;;1.60;99.90;;;;;;5113937;27;20961;-27
2021/01/26 03:42:10;;;;;;;19.57;15.00;;;1.60;99.90;;;;;;5127951;28;20914;-26
2021/01/26 03:44:38;;;;;;;22.53;15.67;;;1.60;99.90;;;;;;5124729;28;20450;-27
2021/01/26 03:47:26;;;;;;;18.40;14.50;;;1.60;99.90;;;;;;5129536;28;20431;-28
2021/01/26 03:50:20;;;;;;;21.70;15.17;;;1.70;99.90;;;;;;5128977;28;20467;-28
2021/01/26 03:53:10;;;;;;;19.20;13.90;;;1.60;99.90;;;;;;5127727;28;20497;-27
2021/01/26 03:55:42;;;;;;;18.50;13.03;;;1.40;99.90;;;;;;5107239;28;20455;-27
2021/01/26 03:58:27;;;;;;;21.30;12.80;;;1.40;99.90;;;;;;5106721;28;20446;-29
2021/01/26 04:01:01;;;;;;;18.13;14.07;;;1.40;99.90;;;;;;5101877;28;20542;-27
2021/01/26 04:03:46;;;;;;;18.83;14.15;;;1.30;99.90;;;;;;5092970;28;20853;-27
2021/01/26 04:06:20;;;;;;;21.40;14.20;;;1.20;99.90;;;;;;5050941;28;20501;-28
2021/01/26 04:08:51;;;;;;;17.33;13.30;;;1.10;99.90;;;;;;5052532;28;20451;-28
2021/01/26 04:11:23;;;;;;;20.90;13.57;;;1.00;99.90;;;;;;5052469;28;21056;-29
2021/01/26 04:14:01;;;;;;;17.93;13.13;;;1.00;99.90;;;;;;5051652;28;20473;-28
2021/01/26 04:16:33;;;;;;;20.10;14.30;;;0.90;99.90;;;;;;5045335;28;20445;-27
2021/01/26 04:19:05;;;;;;;19.60;14.90;;;0.80;99.90;;;;;;5052300;28;20704;-28
2021/01/26 04:21:34;;;;;;;22.05;15.63;;;0.80;99.90;;;;;;5037637;28;20451;-29
2021/01/26 04:24:03;;;;;;;22.10;15.93;;;0.80;99.90;;;;;;5032680;28;20219;-28
2021/01/26 04:26:33;;;;;;;24.17;16.23;;;0.80;99.90;;;;;;5031918;28;20239;-28
2021/01/26 04:29:01;;;;;;;24.87;15.70;;;0.80;99.90;;;;;;5041415;28;20243;-27
2021/01/26 04:31:28;;;;;;;22.83;16.30;;;0.90;99.90;;;;;;5112941;28;20457;-27
2021/01/26 04:33:56;;;;;;;21.73;15.10;;;1.00;99.90;;;;;;5112829;28;20580;-27
2021/01/26 04:36:27;;;;;;;21.50;15.50;;;1.10;99.90;;;;;;5101440;28;20203;-27
2021/01/26 04:38:54;;;;;;;23.43;14.83;;;1.20;99.90;;;;;;5088873;28;20478;-28
2021/01/26 04:41:41;;;;;;;22.30;13.80;;;1.10;99.90;;;;;;5103763;28;20446;-29
2021/01/26 04:44:51;;;;;;;21.17;14.00;;;1.20;99.90;;;;;;5093803;28;21111;-27
2021/01/26 04:47:22;;;;;;;21.58;15.15;;;1.30;99.90;;;;;;5009007;28;20447;-28
2021/01/26 04:50:01;;;;;;;22.77;14.23;;;1.30;99.90;;;;;;5009560;28;20308;-26
2021/01/26 04:52:54;;;;;;;20.30;14.13;;;1.30;99.90;;;;;;5047439;28;20455;-27
2021/01/26 04:55:33;;;;;;;23.75;16.85;;;1.20;99.90;;;;;;5091631;28;20524;-27
2021/01/26 04:58:19;;;;;;;24.40;15.63;;;1.20;99.90;;;;;;5088768;28;20246;-30
2021/01/26 05:00:57;;;;;;;20.40;13.60;;;1.30;99.90;;;;;;5096118;28;20439;-27
2021/01/26 05:03:48;;;;;;;22.93;15.73;;;1.30;99.90;;;;;;5109617;28;20987;-27
2021/01/26 05:06:18;;;;;;;24.67;14.07;;;1.20;99.90;;;;;;5086137;28;20772;-28
2021/01/26 05:08:51;;;;;;;29.30;18.40;;;1.20;99.90;;;;;;5084164;28;20478;-28
2021/01/26 05:11:19;;;;;;;23.20;15.60;;;1.20;99.90;;;;;;5091900;28;20497;-27
2021/01/26 05:13:50;;;;;;;23.40;16.20;;;1.20;99.90;;;;;;5106866;28;20445;-27
2021/01/26 05:16:24;;;;;;;22.40;15.68;;;1.20;99.90;;;;;;5108334;28;20451;-27
2021/01/26 05:18:55;;;;;;;21.30;15.00;;;1.20;99.90;;;;;;5106921;28;21075;-26
2021/01/26 05:21:33;;;;;;;17.53;12.93;;;1.20;99.90;;;;;;5094741;28;20921;-27
2021/01/26 05:24:08;;;;;;;21.07;15.70;;;1.30;99.90;;;;;;5106897;28;20455;-28
2021/01/26 05:26:34;;;;;;;21.23;13.70;;;1.30;99.90;;;;;;5104233;28;20541;-27
2021/01/26 05:29:01;;;;;;;22.80;13.90;;;1.30;99.90;;;;;;5106074;28;20531;-27
2021/01/26 05:31:28;;;;;;;27.00;16.10;;;1.30;99.90;;;;;;5098405;28;20436;-28
2021/01/26 05:34:02;;;;;;;19.42;13.25;;;1.30;99.90;;;;;;5086783;28;20451;-27
2021/01/26 05:36:29;;;;;;;24.85;17.38;;;1.30;99.90;;;;;;5085823;28;20230;-27
2021/01/26 05:38:55;;;;;;;19.60;14.20;;;1.30;99.90;;;;;;5087203;28;20489;-27
2021/01/26 05:41:24;;;;;;;24.40;15.80;;;1.40;99.90;;;;;;5091976;28;20434;-27
2021/01/26 05:43:53;;;;;;;22.00;14.95;;;1.40;99.90;;;;;;5101222;28;20463;-28
2021/01/26 05:46:41;;;;;;;23.40;16.40;;;1.50;99.90;;;;;;5098036;28;20205;-28
2021/01/26 05:49:08;;;;;;;19.00;14.17;;;1.50;99.90;;;;;;5099781;28;20449;-27
2021/01/26 05:51:37;;;;;;;18.30;14.70;;;1.50;99.90;;;;;;5102450;28;20435;-27
2021/01/26 05:54:10;;;;;;;29.83;21.00;;;1.50;99.90;;;;;;5103488;28;20557;-28
2021/01/26 05:56:46;;;;;;;18.63;13.57;;;1.50;99.90;;;;;;5103692;28;20880;-26
2021/01/26 05:59:25;;;;;;;21.47;14.40;;;1.50;99.90;;;;;;5081114;28;20206;-26
2021/01/26 06:01:53;;;;;;;18.67;13.20;;;1.60;99.90;;;;;;5101881;28;20435;-26
2021/01/26 06:04:26;;;;;;;18.97;13.50;;;1.60;99.90;;;;;;5085639;28;20485;-27
2021/01/26 06:06:55;;;;;;;30.50;16.70;;;1.70;99.90;;;;;;5097646;28;20710;-27
2021/01/26 06:09:31;;;;;;;25.50;16.17;;;1.60;99.90;;;;;;5079629;28;20464;-27
2021/01/26 06:12:24;;;;;;;26.00;18.40;;;1.50;99.90;;;;;;5077510;28;20787;-27
2021/01/26 06:18:12;;;;;;;33.63;23.00;;;1.50;99.90;;;;;;5085618;28;20450;-28
2021/01/26 06:20:39;;;;;;;25.27;15.93;;;1.40;99.90;;;;;;5075081;28;20475;-27
2021/01/26 06:23:14;;;;;;;20.67;14.20;;;1.50;99.90;;;;;;5081179;28;20441;-28
2021/01/26 06:25:43;;;;;;;22.57;14.00;;;1.50;99.90;;;;;;5083810;28;20195;-26
2021/01/26 06:28:27;;;;;;;25.07;15.17;;;1.40;99.90;;;;;;5076729;28;20440;-27
2021/01/26 06:31:01;;;;;;;24.57;14.23;;;1.40;99.90;;;;;;5077292;28;20646;-27
2021/01/26 06:33:47;;;;;;;16.07;11.47;;;1.50;99.90;;;;;;5075541;28;20471;-27
2021/01/26 06:36:40;;;;;;;21.70;13.37;;;1.50;99.90;;;;;;5055391;28;20459;-26
2021/01/26 06:39:28;;;;;;;17.95;11.82;;;1.50;99.90;;;;;;5087355;28;20477;-28
2021/01/26 06:42:09;;;;;;;23.13;12.93;;;1.30;99.90;;;;;;5081259;28;20207;-27
2021/01/26 06:45:02;;;;;;;24.85;15.05;;;1.30;99.90;;;;;;5054590;28;20440;-28
2021/01/26 06:48:06;;;;;;;20.48;12.50;;;1.30;99.90;;;;;;5072335;28;20276;-30
2021/01/26 06:50:49;;;;;;;25.65;14.63;;;1.50;99.90;;;;;;5073165;28;20356;-28
2021/01/26 06:53:22;;;;;;;21.15;13.00;;;1.50;99.90;;;;;;5089854;28;20205;-27
2021/01/26 06:56:15;;;;;;;18.63;12.90;;;1.50;99.90;;;;;;5089163;28;20195;-27
2021/01/26 06:59:07;;;;;;;17.63;11.93;;;1.60;99.90;;;;;;5080215;28;20535;-27
2021/01/26 07:02:13;;;;;;;23.90;13.18;;;1.50;99.90;;;;;;5065733;28;21083;-27
2021/01/26 07:05:18;;;;;;;19.17;12.60;;;1.50;99.90;;;;;;5068260;28;20310;-27
2021/01/26 07:08:11;;;;;;;15.93;12.23;;;1.60;99.90;;;;;;5039553;28;20523;-26
2021/01/26 07:11:07;;;;;;;18.30;14.43;;;1.50;99.90;;;;;;5047173;28;20925;-27
2021/01/26 07:13:40;;;;;;;22.30;11.80;;;1.60;99.90;;;;;;5078756;28;20206;-30
2021/01/26 07:16:39;;;;;;;22.07;12.97;;;1.60;99.90;;;;;;5078848;28;21275;-26
2021/01/26 07:19:39;;;;;;;18.67;12.10;;;1.60;99.90;;;;;;5055533;28;21077;-28
2021/01/26 07:22:32;;;;;;;14.37;10.93;;;1.60;99.90;;;;;;5043773;28;20574;-28
2021/01/26 07:25:08;;;;;;;18.23;12.43;;;1.60;99.90;;;;;;5058678;28;20517;-27
2021/01/26 07:28:05;;;;;;;21.23;12.67;;;1.60;99.90;;;;;;5067069;28;20439;-28
2021/01/26 07:30:37;;;;;;;15.90;11.80;;;1.70;99.90;;;;;;5058829;28;20487;-30
2021/01/26 07:33:09;;;;;;;19.27;12.47;;;1.70;99.90;;;;;;5058499;28;21201;-27
2021/01/26 07:35:51;;;;;;;18.60;11.33;;;1.70;99.90;;;;;;5056533;28;20714;-26
2021/01/26 07:38:27;;;;;;;14.17;10.03;;;1.70;99.90;;;;;;5063607;28;20482;-26
2021/01/26 07:41:02;;;;;;;19.73;12.13;;;1.70;99.90;;;;;;5065995;28;21422;-28
2021/01/26 07:43:38;;;;;;;17.67;11.47;;;1.70;99.90;;;;;;5067039;28;20988;-29
2021/01/26 07:46:14;;;;;;;15.85;11.38;;;1.60;99.90;;;;;;5068558;28;20440;-27
2021/01/26 07:48:46;;;;;;;20.60;12.20;;;1.50;99.90;;;;;;5063428;28;20267;-28
2021/01/26 07:51:19;;;;;;;18.87;11.73;;;1.60;99.90;;;;;;5080929;28;20493;-27
2021/01/26 07:53:54;;;;;;;20.10;11.40;;;1.60;99.90;;;;;;5079788;28;20439;-27
2021/01/26 07:56:30;;;;;;;18.30;11.73;;;1.50;99.90;;;;;;5066209;28;20451;-27
2021/01/26 07:59:02;;;;;;;17.65;10.77;;;1.60;99.90;;;;;;5060086;28;20466;-28
2021/01/26 08:01:37;;;;;;;20.07;11.30;;;1.60;99.90;;;;;;5069472;27;20281;-27
2021/01/26 08:04:05;;;;;;;24.90;10.10;;;1.80;99.90;;;;;;5054571;28;20443;-28
2021/01/26 08:06:50;;;;;;;16.37;10.07;;;1.70;99.90;;;;;;5053369;28;20452;-27
2021/01/26 08:09:26;;;;;;;14.57;10.60;;;1.50;99.90;;;;;;5062102;28;20444;-27
2021/01/26 08:11:59;;;;;;;18.67;11.10;;;1.50;99.90;;;;;;5059803;28;20705;-27
2021/01/26 08:14:41;;;;;;;17.10;9.93;;;1.60;99.90;;;;;;5050987;28;20463;-27
2021/01/26 08:17:14;;;;;;;14.37;10.10;;;1.70;99.90;;;;;;5054905;28;20604;-28
2021/01/26 08:19:46;;;;;;;18.53;12.03;;;1.80;99.90;;;;;;5044407;28;21000;-27
2021/01/26 08:22:30;;;;;;;20.33;13.10;;;1.80;99.90;;;;;;5054866;28;20486;-26
2021/01/26 08:25:03;;;;;;;22.17;18.10;;;1.80;99.90;;;;;;5075048;28;20490;-27
2021/01/26 08:28:00;;;;;;;15.40;9.90;;;1.80;99.90;;;;;;5079041;28;20538;-27
2021/01/26 08:31:01;;;;;;;14.67;9.57;;;1.80;99.90;;;;;;5067791;28;20819;-26
2021/01/26 08:33:32;;;;;;;16.53;11.57;;;1.90;99.90;;;;;;4950819;28;20617;-27
2021/01/26 08:36:24;;;;;;;17.42;12.25;;;1.90;99.90;;;;;;4961909;28;20452;-27
2021/01/26 08:38:56;;;;;;;14.53;10.53;;;1.80;99.90;;;;;;4944202;28;20257;-26
2021/01/26 08:41:51;;;;;;;18.00;12.43;;;1.80;99.90;;;;;;4964451;28;20431;-28
2021/01/26 08:44:53;;;;;;;22.10;11.43;;;1.90;99.90;;;;;;4959724;28;20910;-27
2021/01/26 08:47:41;;;;;;;12.73;9.37;;;1.90;99.90;;;;;;5063597;28;20724;-27
2021/01/26 08:50:20;;;;;;;13.97;12.10;;;1.90;99.90;;;;;;5049579;28;20618;-26
2021/01/26 08:52:47;;;;;;;13.53;10.40;;;1.90;99.90;;;;;;5061904;28;20938;-28
2021/01/26 08:55:38;;;;;;;14.87;11.00;;;2.00;99.90;;;;;;5063258;28;20448;-27
2021/01/26 08:58:10;;;;;;;10.87;8.33;;;2.00;99.90;;;;;;5060368;28;20463;-26
2021/01/26 09:00:40;;;;;;;16.43;11.23;;;2.00;99.90;;;;;;5076979;28;21000;-27
2021/01/26 09:03:34;;;;;;;13.90;10.87;;;1.90;99.90;;;;;;5054759;28;20487;-26
2021/01/26 09:06:06;;;;;;;14.93;10.90;;;2.00;99.90;;;;;;5059863;28;20877;-26
2021/01/26 09:08:55;;;;;;;24.23;18.70;;;1.90;99.90;;;;;;5066908;28;20841;-27
2021/01/26 09:11:31;;;;;;;14.50;10.53;;;1.90;99.90;;;;;;5082038;28;20519;-27
2021/01/26 09:14:26;;;;;;;15.00;10.07;;;2.10;99.90;;;;;;5067127;28;20438;-27
2021/01/26 09:17:02;;;;;;;9.67;8.60;;;2.10;99.90;;;;;;5071347;28;20451;-27
2021/01/26 09:19:33;;;;;;;13.23;8.67;;;2.10;99.90;;;;;;5054367;28;20739;-27
2021/01/26 09:22:13;;;;;;;9.33;8.13;;;2.10;99.90;;;;;;5058938;28;20448;-27
2021/01/26 09:24:42;;;;;;;21.93;11.77;;;2.10;99.90;;;;;;5070938;28;20475;-27
2021/01/26 09:27:23;;;;;;;11.50;8.23;;;2.10;99.90;;;;;;5065857;28;20493;-26
2021/01/26 09:30:13;;;;;;;13.37;8.50;;;2.20;99.90;;;;;;5055471;28;20527;-27
2021/01/26 09:32:44;;;;;;;9.33;7.50;;;2.30;99.90;;;;;;5034216;28;21200;-26
2021/01/26 09:35:22;;;;;;;11.53;8.70;;;2.30;99.90;;;;;;5036202;28;20511;-28
2021/01/26 09:38:04;;;;;;;10.47;9.33;;;2.40;99.90;;;;;;5031413;28;20448;-28
2021/01/26 09:40:32;;;;;;;11.67;10.40;;;2.60;99.90;;;;;;5037525;28;20544;-28
2021/01/26 09:43:21;;;;;;;10.57;8.50;;;2.60;99.90;;;;;;5031081;28;20586;-29
2021/01/26 09:45:59;;;;;;;9.50;8.53;;;2.70;99.90;;;;;;5033669;28;20782;-25
2021/01/26 09:48:36;;;;;;;12.47;8.27;;;2.80;99.90;;;;;;5015667;28;20443;-27
2021/01/26 09:51:12;;;;;;;10.23;9.13;;;2.90;99.90;;;;;;5021269;28;20468;-27
2021/01/26 09:53:41;;;;;;;14.00;9.73;;;3.00;99.90;;;;;;5033056;28;20507;-27
2021/01/26 09:56:11;;;;;;;16.10;8.87;;;3.10;99.90;;;;;;5029027;28;20548;-25
2021/01/26 09:58:39;;;;;;;12.90;9.83;;;3.10;99.90;;;;;;5042725;28;20955;-29
2021/01/26 10:01:10;;;;;;;14.30;9.63;;;3.20;99.90;;;;;;5050081;28;20561;-29
2021/01/26 10:03:37;;;;;;;13.40;8.83;;;3.20;99.90;;;;;;5042807;28;20542;-28
2021/01/26 10:06:06;;;;;;;14.20;9.10;;;3.20;99.90;;;;;;5038748;28;20436;-27
2021/01/26 10:08:34;;;;;;;11.47;8.57;;;3.30;99.90;;;;;;5042396;28;20459;-27
2021/01/26 10:11:13;;;;;;;11.00;7.33;;;3.30;99.90;;;;;;5037952;28;20589;-28
2021/01/26 10:13:42;;;;;;;11.90;9.30;;;3.30;99.90;;;;;;5039207;28;20450;-28
2021/01/26 10:16:30;;;;;;;10.43;7.70;;;3.30;99.90;;;;;;5042948;28;20742;-29
2021/01/26 10:18:57;;;;;;;11.00;7.87;;;3.40;99.90;;;;;;5038885;28;20491;-27
2021/01/26 10:21:40;;;;;;;12.67;8.77;;;3.20;99.90;;;;;;5056502;28;20913;-29
2021/01/26 10:24:12;;;;;;;8.33;6.90;;;3.20;99.90;;;;;;5027629;28;20915;-28
2021/01/26 10:26:42;;;;;;;8.67;6.93;;;3.20;99.90;;;;;;5033507;28;20449;-28
2021/01/26 10:29:30;;;;;;;10.23;7.20;;;3.20;99.90;;;;;;5040646;28;20537;-28
2021/01/26 10:32:00;;;;;;;9.53;7.90;;;3.20;99.90;;;;;;5040690;28;20440;-29
2021/01/26 10:34:49;;;;;;;10.57;9.57;;;3.20;99.90;;;;;;5051260;28;20561;-28
2021/01/26 10:37:32;;;;;;;7.93;6.93;;;3.30;99.90;;;;;;5055304;28;20539;-29
2021/01/26 10:40:33;;;;;;;14.60;8.30;;;3.30;99.90;;;;;;5048512;28;20470;-29
2021/01/26 10:43:06;;;;;;;10.77;7.87;;;3.40;99.90;;;;;;5051538;28;20447;-27
2021/01/26 10:45:45;;;;;;;10.90;7.70;;;3.40;99.90;;;;;;5043853;28;20444;-28
2021/01/26 10:48:23;;;;;;;8.80;7.90;;;3.60;99.90;;;;;;5038574;28;20494;-27
2021/01/26 10:50:51;;;;;;;12.50;8.60;;;3.80;99.90;;;;;;5034620;28;20480;-27
2021/01/26 10:53:38;;;;;;;11.33;9.63;;;4.10;99.90;;;;;;5037847;28;20456;-32
2021/01/26 10:56:06;;;;;;;10.07;9.00;;;4.50;99.90;;;;;;5051663;28;20589;-28
2021/01/26 10:58:33;;;;;;;10.90;9.40;;;4.60;99.90;;;;;;5054166;28;20495;-29
2021/01/26 11:01:01;;;;;;;12.73;6.60;;;4.60;99.90;;;;;;5043283;28;21373;-28
2021/01/26 11:03:29;;;;;;;9.30;8.53;;;4.70;99.90;;;;;;5039456;28;20532;-27
2021/01/26 11:05:57;;;;;;;9.80;8.80;;;4.50;99.90;;;;;;5053517;28;20944;-28
2021/01/26 11:08:25;;;;;;;7.37;6.67;;;4.20;99.90;;;;;;5030354;28;21475;-28
2021/01/26 11:10:53;;;;;;;8.97;7.70;;;4.10;99.90;;;;;;5013847;28;20921;-27
2021/01/26 11:13:20;;;;;;;8.70;7.80;;;4.10;99.90;;;;;;5030366;28;20484;-28
2021/01/26 11:15:48;;;;;;;8.97;8.17;;;4.10;99.90;;;;;;5055420;28;20521;-28
2021/01/26 11:18:21;;;;;;;8.27;7.53;;;4.00;99.90;;;;;;5043892;28;20452;-29
2021/01/26 11:20:48;;;;;;;9.53;6.67;;;4.10;99.90;;;;;;5045366;28;20779;-29
2021/01/26 11:23:40;;;;;;;6.07;5.50;;;4.20;99.90;;;;;;5053308;28;20491;-27
2021/01/26 11:26:11;;;;;;;7.07;6.47;;;4.10;99.90;;;;;;5060552;28;20467;-27
2021/01/26 11:31:48;;;;;;;8.50;7.70;;;4.00;99.90;;;;;;4999299;28;20883;-28
2021/01/26 11:34:16;;;;;;;9.07;8.23;;;4.00;99.90;;;;;;5031439;28;20471;-28
2021/01/26 11:36:43;;;;;;;7.30;6.33;;;4.00;99.90;;;;;;5039143;28;20498;-27
2021/01/26 11:39:10;;;;;;;5.83;4.90;;;4.00;99.90;;;;;;5023739;28;20459;-28
2021/01/26 11:41:39;;;;;;;15.17;6.77;;;4.00;99.90;;;;;;5050696;28;20440;-29
2021/01/26 11:44:06;;;;;;;6.80;4.87;;;4.00;99.90;;;;;;5044755;28;20453;-27
2021/01/26 11:46:34;;;;;;;8.27;5.60;;;4.10;99.90;;;;;;5058045;28;20795;-29
2021/01/26 11:49:03;;;;;;;9.00;5.83;;;4.10;99.90;;;;;;5060969;28;20526;-27
2021/01/26 11:51:30;;;;;;;5.87;5.23;;;4.00;99.90;;;;;;5047773;28;20553;-30
2021/01/26 11:53:58;;;;;;;5.90;5.40;;;4.00;99.90;;;;;;5052983;28;20490;-27
2021/01/26 11:56:28;;;;;;;6.30;5.70;;;4.00;99.90;;;;;;5058759;28;20554;-27
2021/01/26 11:58:57;;;;;;;6.60;4.70;;;3.90;99.90;;;;;;5048611;28;20444;-28
2021/01/26 12:05:12;;;;;;;8.20;5.20;;;3.40;99.90;;;;;;5042317;28;20448;-30
2021/01/26 12:07:43;;;;;;;6.00;5.30;;;3.50;99.90;;;;;;5046630;28;20543;-26
2021/01/26 12:10:11;;;;;;;6.53;5.93;;;3.50;99.90;;;;;;5050428;28;20916;-28
2021/01/26 12:12:38;;;;;;;5.80;5.30;;;3.50;99.90;;;;;;5060271;28;20448;-28
2021/01/26 12:15:08;;;;;;;15.30;5.80;;;3.60;99.90;;;;;;5037994;28;20810;-27
2021/01/26 12:17:35;;;;;;;7.90;6.00;;;3.60;99.90;;;;;;5041906;28;20535;-26
2021/01/26 12:20:14;;;;;;;8.10;5.23;;;3.70;99.90;;;;;;5053693;28;20476;-27
2021/01/26 12:22:49;;;;;;;5.73;5.20;;;3.70;99.90;;;;;;5051126;28;20455;-28
2021/01/26 12:25:18;;;;;;;5.80;5.20;;;3.70;99.90;;;;;;5062600;28;20825;-26
2021/01/26 12:27:46;;;;;;;6.00;4.87;;;3.80;99.90;;;;;;5054063;28;20456;-26
2021/01/26 12:30:15;;;;;;;6.13;5.60;;;3.80;99.90;;;;;;5054933;28;20468;-28
2021/01/26 12:32:44;;;;;;;5.10;4.70;;;4.00;99.90;;;;;;5062398;28;20454;-27
2021/01/26 12:35:14;;;;;;;5.27;4.13;;;4.10;99.90;;;;;;5035729;28;20806;-26
2021/01/26 12:37:41;;;;;;;6.13;4.67;;;4.10;99.90;;;;;;5041108;28;20459;-27
2021/01/26 12:40:10;;;;;;;7.93;4.93;;;4.10;99.90;;;;;;5056896;28;21061;-27
2021/01/26 12:42:39;;;;;;;7.03;4.83;;;4.30;99.90;;;;;;5064789;28;20520;-28
2021/01/26 12:45:07;;;;;;;6.33;4.63;;;4.40;99.90;;;;;;5075217;28;20469;-28
2021/01/26 12:47:35;;;;;;;4.90;4.50;;;4.40;99.90;;;;;;5027271;28;20556;-27
2021/01/26 12:50:04;;;;;;;6.10;4.67;;;4.50;99.90;;;;;;5087387;27;20491;-26
2021/01/26 12:52:32;;;;;;;4.00;3.70;;;4.40;99.90;;;;;;5066203;28;20443;-27
2021/01/26 12:54:58;;;;;;;5.10;4.27;;;4.20;99.90;;;;;;5100458;27;20450;-27
2021/01/26 12:57:27;;;;;;;6.37;5.10;;;4.10;99.90;;;;;;5093914;27;20547;-28
2021/01/26 12:59:54;;;;;;;5.40;4.40;;;4.30;99.90;;;;;;5082551;27;20514;-27
2021/01/26 13:02:22;;;;;;;6.30;4.40;;;4.50;99.90;;;;;;5088173;27;20549;-26
2021/01/26 13:04:52;;;;;;;5.70;4.80;;;4.40;99.90;;;;;;5099361;27;20454;-27
2021/01/26 13:07:20;;;;;;;5.60;4.63;;;4.30;99.90;;;;;;5092248;27;20564;-27
2021/01/26 13:09:53;;;;;;;7.80;4.57;;;4.00;99.90;;;;;;5085548;27;20443;-26
2021/01/26 13:12:21;;;;;;;5.93;4.20;;;4.00;99.90;;;;;;5095888;27;20493;-27
2021/01/26 13:14:50;;;;;;;5.13;4.57;;;4.00;99.90;;;;;;5067713;28;20558;-28
2021/01/26 13:17:17;;;;;;;5.13;4.40;;;4.10;99.90;;;;;;5074929;28;20741;-27
2021/01/26 13:19:44;;;;;;;5.53;4.93;;;4.20;99.90;;;;;;5088819;27;20525;-27
2021/01/26 13:22:11;;;;;;;11.23;6.83;;;4.20;99.90;;;;;;5099139;27;20828;-27
2021/01/26 13:24:38;;;;;;;6.40;5.20;;;4.00;99.90;;;;;;5098334;27;20458;-27
2021/01/26 13:27:06;;;;;;;6.03;4.70;;;3.90;99.90;;;;;;5101274;27;20473;-27
2021/01/26 13:29:33;;;;;;;5.93;4.80;;;3.90;99.90;;;;;;5076338;27;20890;-27
2021/01/26 13:32:02;;;;;;;6.60;4.63;;;3.90;99.90;;;;;;5060222;28;20806;-27
2021/01/26 13:34:30;;;;;;;5.43;4.77;;;3.80;99.90;;;;;;5059467;28;21243;-27